Time;durP1;ratioP1;P1;durP2;ratioP2;P2;SDS_P1;SDS_P2;PMS_P1;PMS_P2;Temp;Humidity;BMP_temperature;BMP_pressure;BME280_temperature;BME280_humidity;BME280_pressure;Samples;Min_cycle;Max_cycle;Signal;HPM_P1;HPM_P2
2022/12/16 00:00:37;;;;;;;20.00;9.47;;;;;;;-11.39;100.00;100360.56;4964955;28;20464;-71
2022/12/16 00:03:04;;;;;;;14.50;9.00;;;;;;;-11.51;100.00;100356.53;4979818;28;20489;-71
2022/12/16 00:05:30;;;;;;;23.47;10.70;;;;;;;-11.44;100.00;100348.56;4980295;28;20464;-71
2022/12/16 00:07:56;;;;;;;20.47;10.77;;;;;;;-11.48;100.00;100346.66;4978889;28;20472;-71
2022/12/16 00:10:23;;;;;;;27.30;11.93;;;;;;;-11.32;100.00;100350.91;4978848;28;20486;-71
2022/12/16 00:12:51;;;;;;;23.13;10.63;;;;;;;-11.33;100.00;100335.72;4979234;28;20457;-71
2022/12/16 00:15:17;;;;;;;22.50;11.87;;;;;;;-11.28;100.00;100341.88;4978020;28;20456;-71
2022/12/16 00:17:43;;;;;;;26.13;12.10;;;;;;;-11.15;100.00;100335.88;4981800;28;20453;-71
2022/12/16 00:20:11;;;;;;;20.30;11.40;;;;;;;-11.14;100.00;100335.97;4979660;28;20449;-71
2022/12/16 00:22:37;;;;;;;25.83;11.37;;;;;;;-11.05;100.00;100323.03;4979261;28;20953;-71
2022/12/16 00:25:04;;;;;;;20.93;11.37;;;;;;;-10.99;100.00;100323.38;4979752;28;20854;-71
2022/12/16 00:27:31;;;;;;;23.10;10.70;;;;;;;-10.93;100.00;100327.88;4976553;28;21024;-71
2022/12/16 00:29:59;;;;;;;26.13;13.77;;;;;;;-10.91;100.00;100324.66;4982202;28;20575;-70
2022/12/16 00:32:25;;;;;;;26.47;12.93;;;;;;;-10.89;100.00;100319.72;4981646;28;20463;-72
2022/12/16 00:34:52;;;;;;;21.03;10.73;;;;;;;-10.92;100.00;100325.47;4981782;28;20827;-71
2022/12/16 00:37:18;;;;;;;21.63;11.80;;;;;;;-10.85;100.00;100316.59;4980300;28;20510;-71
2022/12/16 00:39:44;;;;;;;29.17;12.50;;;;;;;-10.91;100.00;100317.09;4981947;28;20837;-70
2022/12/16 00:42:10;;;;;;;27.67;13.93;;;;;;;-10.89;100.00;100319.72;4979704;28;20464;-71
2022/12/16 00:44:37;;;;;;;25.03;12.00;;;;;;;-10.91;100.00;100326.31;4977511;28;20484;-71
2022/12/16 00:47:04;;;;;;;25.90;12.97;;;;;;;-10.79;100.00;100329.50;4981293;28;20464;-72
2022/12/16 00:49:31;;;;;;;20.43;12.50;;;;;;;-10.79;100.00;100332.03;4979443;28;20463;-71
2022/12/16 00:51:57;;;;;;;30.23;14.67;;;;;;;-10.79;100.00;100327.00;4979456;28;20468;-71
2022/12/16 00:54:24;;;;;;;23.87;12.23;;;;;;;-10.64;100.00;100336.16;4976074;28;20493;-70
2022/12/16 00:56:50;;;;;;;26.77;12.67;;;;;;;-10.34;100.00;100326.84;4979889;28;20461;-70
2022/12/16 00:59:16;;;;;;;20.13;10.57;;;;;;;-10.49;100.00;100324.38;4979115;28;20472;-71
2022/12/16 01:01:43;;;;;;;22.70;11.77;;;;;;;-10.44;100.00;100327.16;4982645;28;20460;-71
2022/12/16 01:04:10;;;;;;;28.33;13.23;;;;;;;-10.31;100.00;100330.34;4973981;28;20858;-70
2022/12/16 01:06:37;;;;;;;26.37;13.33;;;;;;;-10.18;100.00;100315.88;4981862;28;20550;-68
2022/12/16 01:09:03;;;;;;;28.10;11.27;;;;;;;-10.13;100.00;100312.81;4981014;28;20480;-72
2022/12/16 01:11:30;;;;;;;24.50;11.37;;;;;;;-10.14;100.00;100315.25;4980409;28;20472;-70
2022/12/16 01:13:56;;;;;;;22.03;12.20;;;;;;;-10.13;100.00;100316.97;4979334;28;20485;-70
2022/12/16 01:16:22;;;;;;;25.27;12.07;;;;;;;-10.26;100.00;100324.72;4977543;28;20553;-69
2022/12/16 01:18:49;;;;;;;28.37;12.00;;;;;;;-10.26;100.00;100317.16;4973926;28;20518;-70
2022/12/16 01:21:17;;;;;;;28.97;13.30;;;;;;;-10.31;100.00;100314.41;4980937;28;20456;-69
2022/12/16 01:23:43;;;;;;;24.40;11.50;;;;;;;-10.21;100.00;100316.59;4976467;28;21063;-72
2022/12/16 01:26:15;;;;;;;20.30;11.67;;;;;;;-10.21;100.00;100301.47;4971931;28;20954;-71
2022/12/16 01:28:41;;;;;;;23.47;11.50;;;;;;;-10.07;100.00;100308.88;4973161;28;20735;-70
2022/12/16 01:31:07;;;;;;;27.60;13.27;;;;;;;-10.17;100.00;100303.34;4975209;28;20491;-71
2022/12/16 01:33:34;;;;;;;28.77;13.23;;;;;;;-10.10;100.00;100307.91;4975337;28;20485;-71
2022/12/16 01:36:02;;;;;;;19.83;11.47;;;;;;;-10.15;100.00;100318.56;4971861;28;20463;-71
2022/12/16 01:38:30;;;;;;;24.60;11.70;;;;;;;-10.14;100.00;100315.25;4977983;28;20467;-71
2022/12/16 01:40:56;;;;;;;28.13;12.53;;;;;;;-10.04;100.00;100316.59;4973534;28;20857;-71
2022/12/16 01:43:26;;;;;;;23.40;11.43;;;;;;;-9.87;100.00;100317.47;4980106;28;21289;-71
2022/12/16 01:45:56;;;;;;;20.60;11.27;;;;;;;-9.75;100.00;100311.38;4973308;28;20480;-71
2022/12/16 01:48:34;;;;;;;25.13;12.43;;;;;;;-9.84;100.00;100310.06;4980451;28;20454;-71
2022/12/16 01:51:05;;;;;;;25.17;12.37;;;;;;;-9.66;100.00;100315.16;4976757;28;20496;-71
2022/12/16 01:53:35;;;;;;;19.57;10.10;;;;;;;-9.68;100.00;100316.75;4981113;28;20477;-71
2022/12/16 01:56:03;;;;;;;32.50;12.93;;;;;;;-9.77;100.00;100325.56;4979584;28;20456;-71
2022/12/16 01:58:34;;;;;;;27.53;12.60;;;;;;;-9.69;100.00;100325.09;4980505;28;20468;-71
2022/12/16 02:01:02;;;;;;;30.03;12.60;;;;;;;-9.66;100.00;100315.16;4978076;28;20469;-70
2022/12/16 02:03:32;;;;;;;28.73;14.93;;;;;;;-9.60;100.00;100313.81;4978655;28;21100;-71
2022/12/16 02:05:59;;;;;;;22.40;12.33;;;;;;;-9.58;100.00;100316.41;4977476;28;20466;-72
2022/12/16 02:08:25;;;;;;;21.73;11.40;;;;;;;-9.55;100.00;100312.38;4976734;28;20467;-71
2022/12/16 02:11:17;;;;;;;29.47;14.07;;;;;;;-9.46;100.00;100311.97;4972736;28;20482;-71
2022/12/16 02:13:58;;;;;;;27.00;13.57;;;;;;;-9.48;100.00;100303.44;4977219;28;20511;-71
2022/12/16 02:16:30;;;;;;;25.23;15.03;;;;;;;-9.35;100.00;100305.78;4978725;28;20456;-71
2022/12/16 02:19:09;;;;;;;27.27;13.53;;;;;;;-9.34;100.00;100302.47;4978923;28;20462;-71
2022/12/16 02:21:47;;;;;;;30.13;15.43;;;;;;;-9.35;100.00;100307.44;4981475;28;20982;-71
2022/12/16 02:24:43;;;;;;;29.47;15.47;;;;;;;-9.30;100.00;100305.13;4982211;28;20471;-70
2022/12/16 02:27:39;;;;;;;28.30;13.37;;;;;;;-9.29;100.00;100300.16;4981470;28;20463;-69
2022/12/16 02:30:11;;;;;;;36.00;16.47;;;;;;;-9.22;100.00;100304.69;4983726;28;20574;-70
2022/12/16 02:32:52;;;;;;;38.90;16.50;;;;;;;-9.14;100.00;100303.41;4984670;28;20491;-71
2022/12/16 02:35:29;;;;;;;48.60;18.53;;;;;;;-9.08;100.00;100297.78;4985718;28;20459;-71
2022/12/16 02:38:05;;;;;;;30.73;15.67;;;;;;;-9.05;100.00;100297.09;4984236;28;20454;-71
2022/12/16 02:40:41;;;;;;;34.37;18.03;;;;;;;-8.99;100.00;100300.78;4982509;28;20474;-71
2022/12/16 02:43:12;;;;;;;43.73;17.90;;;;;;;-8.96;100.00;100303.41;4984119;28;20513;-71
2022/12/16 02:45:40;;;;;;;32.07;17.13;;;;;;;-8.90;100.00;100291.88;4981192;28;20461;-71
2022/12/16 02:48:08;;;;;;;38.90;19.30;;;;;;;-8.87;100.00;100297.94;4980981;28;20988;-71
2022/12/16 02:50:37;;;;;;;40.83;16.93;;;;;;;-8.76;100.00;100295.91;4979823;28;20878;-71
2022/12/16 02:53:05;;;;;;;31.43;15.47;;;;;;;-8.66;100.00;100290.47;4981692;28;20505;-71
2022/12/16 02:55:40;;;;;;;33.13;15.70;;;;;;;-8.65;100.00;100282.09;4982717;28;20798;-70
2022/12/16 02:58:16;;;;;;;36.17;15.97;;;;;;;-8.58;100.00;100284.13;4983647;28;20452;-71
2022/12/16 03:00:53;;;;;;;32.47;16.77;;;;;;;-8.65;100.00;100274.53;4981738;28;21004;-69
2022/12/16 03:03:28;;;;;;;30.03;16.43;;;;;;;-8.64;100.00;100275.38;4982868;28;20746;-70
2022/12/16 03:05:57;;;;;;;37.53;17.17;;;;;;;-8.71;100.00;100278.44;4984196;28;20844;-71
2022/12/16 03:08:29;;;;;;;58.53;26.50;;;;;;;-8.62;100.00;100279.72;4982482;28;20531;-69
2022/12/16 03:11:00;;;;;;;42.57;21.20;;;;;;;-8.66;100.00;100277.84;4979175;28;20471;-70
2022/12/16 03:13:32;;;;;;;40.87;20.50;;;;;;;-8.62;100.00;100267.09;4985235;28;21067;-71
2022/12/16 03:16:01;;;;;;;34.43;16.97;;;;;;;-8.59;100.00;100269.72;4982072;28;20453;-71
2022/12/16 03:18:29;;;;;;;30.40;14.77;;;;;;;-8.57;100.00;100262.22;4983355;28;20460;-69
2022/12/16 03:21:00;;;;;;;34.97;16.20;;;;;;;-8.55;100.00;100259.75;4980817;28;20460;-71
2022/12/16 03:23:33;;;;;;;33.63;17.33;;;;;;;-8.56;100.00;100266.50;4978086;28;21018;-71
2022/12/16 03:26:04;;;;;;;36.23;18.43;;;;;;;-8.59;100.00;100259.63;4982301;28;20817;-71
2022/12/16 03:28:39;;;;;;;37.43;18.27;;;;;;;-8.60;100.00;100270.53;4978879;28;20456;-69
2022/12/16 03:31:14;;;;;;;34.80;16.73;;;;;;;-8.58;100.00;100273.16;4976645;28;20483;-71
2022/12/16 03:33:48;;;;;;;37.97;15.87;;;;;;;-8.53;100.00;100265.75;4977716;28;20804;-71
2022/12/16 03:36:20;;;;;;;30.33;15.67;;;;;;;-8.35;100.00;100270.72;4975864;28;20523;-70
2022/12/16 03:38:47;;;;;;;37.23;17.97;;;;;;;-8.52;100.00;100270.03;4975713;28;20464;-70
2022/12/16 03:41:14;;;;;;;35.23;17.73;;;;;;;-8.47;100.00;100273.63;4977696;28;20467;-71
2022/12/16 03:43:41;;;;;;;32.00;14.03;;;;;;;-8.37;100.00;100269.00;4981345;28;20532;-71
2022/12/16 03:46:09;;;;;;;28.97;15.50;;;;;;;-8.47;100.00;100271.09;4977767;28;21008;-70
2022/12/16 03:48:36;;;;;;;37.60;17.23;;;;;;;-8.41;100.00;100269.69;4978172;28;20464;-71
2022/12/16 03:51:03;;;;;;;33.53;16.97;;;;;;;-8.38;100.00;100267.25;4957426;28;20476;-70
2022/12/16 03:53:30;;;;;;;29.77;15.80;;;;;;;-8.37;100.00;100261.41;4976510;28;20496;-70
2022/12/16 03:55:56;;;;;;;30.77;17.90;;;;;;;-8.44;100.00;100266.16;4975784;28;20905;-71
2022/12/16 03:58:23;;;;;;;32.93;16.33;;;;;;;-8.46;100.00;100263.59;4960632;28;20550;-71
2022/12/16 04:00:49;;;;;;;36.47;17.77;;;;;;;-8.52;100.00;100270.03;4981288;28;20457;-71
2022/12/16 04:03:15;;;;;;;35.97;16.33;;;;;;;-8.46;100.00;100270.28;4977030;28;20940;-70
2022/12/16 04:05:42;;;;;;;31.80;14.40;;;;;;;-8.47;100.00;100274.47;4983801;28;20464;-70
2022/12/16 04:08:09;;;;;;;37.47;16.33;;;;;;;-8.45;100.00;100270.34;4981449;28;20461;-71
2022/12/16 04:24:27;;;;;;;37.67;17.37;;;;;;;-8.55;100.00;100275.78;4926433;28;20523;-71
2022/12/16 04:30:17;;;;;;;36.83;17.67;;;;;;;-8.57;100.00;100283.31;4978654;28;20469;-71
2022/12/16 04:32:24;;;;;;;31.53;16.20;;;;;;;-8.61;100.00;100283.97;4957288;28;20551;-71
2022/12/16 04:34:50;;;;;;;32.17;15.47;;;;;;;-8.58;100.00;100286.66;4978801;28;20491;-71
